Time;durP1;ratioP1;P1;durP2;ratioP2;P2;SDS_P1;SDS_P2;PMS_P1;PMS_P2;Temp;Humidity;BMP_temperature;BMP_pressure;BME280_temperature;BME280_humidity;BME280_pressure;Samples;Min_cycle;Max_cycle;Signal;HPM_P1;HPM_P2
2023/11/20 00:01:08;;;;;;;2.33;2.00;;;;;;;21.84;59.30;97261.81;5018012;28;20677;-29
2023/11/20 00:03:35;;;;;;;3.17;2.13;;;;;;;21.85;59.41;97263.56;5017010;28;20230;-30
2023/11/20 00:06:02;;;;;;;3.13;2.20;;;;;;;21.85;59.49;97257.59;5012915;28;20433;-33
2023/11/20 00:08:29;;;;;;;3.60;2.30;;;;;;;21.85;59.49;97252.47;5018098;28;20225;-28
2023/11/20 00:10:55;;;;;;;3.13;1.97;;;;;;;21.82;59.46;97240.47;5016955;28;20668;-32
2023/11/20 00:13:22;;;;;;;3.57;2.33;;;;;;;21.85;59.60;97237.13;5012511;28;20233;-32
2023/11/20 00:15:49;;;;;;;3.20;2.43;;;;;;;21.85;59.34;97234.56;5014769;28;20272;-32
2023/11/20 00:18:15;;;;;;;2.80;2.10;;;;;;;21.85;59.49;97230.31;5025468;28;20222;-30
2023/11/20 00:20:42;;;;;;;2.77;2.10;;;;;;;21.82;59.32;97232.81;5018690;28;20636;-28
2023/11/20 00:23:08;;;;;;;2.17;1.97;;;;;;;21.86;59.32;97246.50;5022822;28;20253;-31
2023/11/20 00:25:35;;;;;;;3.73;2.40;;;;;;;21.85;59.46;97238.00;5015131;28;20759;-29
2023/11/20 00:28:02;;;;;;;2.77;1.97;;;;;;;21.85;59.30;97237.13;5024728;28;20280;-29
2023/11/20 00:30:29;;;;;;;2.10;1.80;;;;;;;21.86;59.07;97238.84;5022734;28;20205;-28
2023/11/20 00:32:55;;;;;;;4.03;2.40;;;;;;;21.86;59.13;97237.16;5023349;28;20206;-31
2023/11/20 00:35:22;;;;;;;2.93;2.00;;;;;;;21.87;59.00;97238.88;5018975;28;20210;-28
2023/11/20 00:37:49;;;;;;;5.60;2.23;;;;;;;21.89;59.06;97241.47;5025991;28;20427;-29
2023/11/20 00:40:15;;;;;;;3.10;2.03;;;;;;;21.88;59.29;97248.31;5022306;28;20202;-31
2023/11/20 00:42:42;;;;;;;3.87;2.30;;;;;;;21.90;58.99;97245.78;5019295;28;20209;-29
2023/11/20 00:45:09;;;;;;;3.03;2.07;;;;;;;21.88;59.15;97248.31;5019645;28;20214;-28
2023/11/20 00:47:36;;;;;;;2.70;1.80;;;;;;;21.88;59.16;97249.97;5013086;28;20242;-30
2023/11/20 00:50:02;;;;;;;3.17;2.30;;;;;;;21.84;59.36;97248.19;5018905;28;20259;-29
2023/11/20 00:52:31;;;;;;;4.03;1.97;;;;;;;21.88;59.28;97249.97;5021959;28;20209;-28
2023/11/20 00:54:58;;;;;;;3.70;2.07;;;;;;;21.87;59.31;97256.78;5021841;28;20708;-34
2023/11/20 00:57:25;;;;;;;3.00;2.10;;;;;;;21.85;59.25;97255.03;5028846;28;20575;-29
2023/11/20 00:59:52;;;;;;;2.67;2.10;;;;;;;21.86;59.30;97257.63;5020121;28;20202;-29
2023/11/20 01:02:18;;;;;;;2.33;1.93;;;;;;;21.86;59.20;97255.06;5024328;28;20206;-32
2023/11/20 01:04:45;;;;;;;2.77;2.07;;;;;;;21.85;59.23;97250.78;5020278;28;20236;-31
2023/11/20 01:07:11;;;;;;;2.87;2.00;;;;;;;21.85;59.17;97249.91;5026315;28;20249;-29
2023/11/20 01:09:40;;;;;;;2.53;2.23;;;;;;;21.85;59.24;97248.22;5027740;28;20233;-31
2023/11/20 01:12:07;;;;;;;2.63;2.17;;;;;;;21.86;59.28;97247.38;5022090;28;20680;-31
2023/11/20 01:14:34;;;;;;;3.03;2.13;;;;;;;21.86;59.31;97249.06;5022082;28;20586;-32
2023/11/20 01:17:00;;;;;;;3.10;2.00;;;;;;;21.86;59.37;97241.41;5021181;28;20292;-30
2023/11/20 01:19:27;;;;;;;2.23;2.03;;;;;;;21.85;59.18;97244.78;5019261;28;20206;-31
2023/11/20 01:21:53;;;;;;;2.80;2.17;;;;;;;21.85;59.05;97247.34;5024460;28;20737;-31
2023/11/20 01:24:20;;;;;;;2.30;1.90;;;;;;;21.86;59.16;97239.72;5020579;28;20222;-29
2023/11/20 01:26:46;;;;;;;2.90;2.10;;;;;;;21.86;59.18;97243.94;5025970;28;20288;-29
2023/11/20 01:29:13;;;;;;;3.23;1.97;;;;;;;21.88;59.02;97242.31;5029957;28;20205;-30
2023/11/20 01:31:40;;;;;;;2.20;1.70;;;;;;;21.79;58.97;97226.75;5024644;28;20584;-31
2023/11/20 01:34:06;;;;;;;2.07;1.87;;;;;;;21.87;59.40;97241.44;5021016;28;20304;-29
2023/11/20 01:36:33;;;;;;;2.37;1.97;;;;;;;21.88;59.22;97234.63;5018347;28;20213;-31
2023/11/20 01:38:59;;;;;;;2.33;1.90;;;;;;;21.87;59.17;97233.75;5018426;28;20214;-29
2023/11/20 01:41:28;;;;;;;3.00;2.13;;;;;;;21.85;59.29;97230.31;5023283;28;20292;-32
2023/11/20 01:43:55;;;;;;;2.80;1.93;;;;;;;21.86;59.29;97239.72;5019787;28;20273;-32
2023/11/20 01:46:22;;;;;;;3.13;1.67;;;;;;;21.82;59.21;97232.81;5018881;28;20198;-29
2023/11/20 01:48:49;;;;;;;2.63;2.00;;;;;;;21.84;59.22;97228.56;5022061;28;20221;-29
2023/11/20 01:51:15;;;;;;;2.60;1.90;;;;;;;21.84;59.25;97241.34;5019740;28;20562;-31
2023/11/20 01:53:42;;;;;;;3.33;1.90;;;;;;;21.82;59.36;97226.81;5002504;28;20983;-31
2023/11/20 01:56:09;;;;;;;2.17;1.90;;;;;;;21.83;59.41;97231.09;5013519;28;20206;-29
2023/11/20 01:58:36;;;;;;;2.33;1.90;;;;;;;21.83;59.55;97236.22;5027001;28;20728;-29
2023/11/20 02:01:03;;;;;;;2.57;1.97;;;;;;;21.80;59.68;97229.34;5020452;28;20311;-29
2023/11/20 02:03:32;;;;;;;2.07;1.90;;;;;;;21.82;59.49;97231.94;5019101;28;20337;-29
2023/11/20 02:05:58;;;;;;;1.93;1.60;;;;;;;21.82;59.37;97232.81;5027016;28;20233;-29
2023/11/20 02:08:26;;;;;;;2.60;2.03;;;;;;;21.81;59.27;97228.50;5027817;28;20767;-31
2023/11/20 02:10:53;;;;;;;2.10;1.90;;;;;;;21.82;59.36;97222.56;5022582;28;20266;-28
2023/11/20 02:13:19;;;;;;;4.43;2.00;;;;;;;21.84;59.38;97222.59;5021912;28;20265;-31
2023/11/20 02:15:46;;;;;;;3.70;2.00;;;;;;;21.84;59.17;97223.44;5017633;28;20210;-30
2023/11/20 02:18:33;;;;;;;2.73;2.17;;;;;;;21.83;59.27;97221.72;5022129;28;20588;-28
2023/11/20 02:21:01;;;;;;;3.10;1.97;;;;;;;21.84;59.39;97222.59;5025644;28;20664;-30
2023/11/20 02:23:28;;;;;;;2.13;1.70;;;;;;;21.83;59.42;97224.28;5022757;28;20229;-34
2023/11/20 02:26:25;;;;;;;4.63;1.87;;;;;;;21.84;59.19;97222.59;5022830;28;20205;-31
2023/11/20 02:29:03;;;;;;;1.90;1.70;;;;;;;21.82;59.30;97226.81;5026403;28;20226;-29
2023/11/20 02:31:30;;;;;;;2.60;1.90;;;;;;;21.81;59.48;97215.72;5020055;28;20209;-30
2023/11/20 02:34:00;;;;;;;3.60;1.97;;;;;;;21.81;59.40;97227.63;5026095;28;20229;-30
2023/11/20 02:36:26;;;;;;;1.87;1.60;;;;;;;21.80;59.56;97236.13;5019026;28;20209;-31
2023/11/20 02:38:53;;;;;;;2.40;2.00;;;;;;;21.80;59.47;97225.91;5025364;28;20297;-31
2023/11/20 02:41:19;;;;;;;2.00;1.80;;;;;;;21.70;59.33;97206.88;5028609;28;20635;-28
2023/11/20 02:43:46;;;;;;;3.57;1.87;;;;;;;21.77;59.34;97208.81;5017514;28;20249;-31
2023/11/20 02:46:13;;;;;;;2.20;1.70;;;;;;;21.80;59.46;97220.78;5028450;28;20202;-30
2023/11/20 02:48:40;;;;;;;3.13;1.80;;;;;;;21.79;59.36;97225.03;5019480;28;20319;-29
2023/11/20 02:51:07;;;;;;;2.30;1.80;;;;;;;21.79;59.47;97221.63;5021649;28;20206;-31
2023/11/20 02:53:34;;;;;;;1.87;1.70;;;;;;;21.80;59.52;97224.22;5019146;28;20229;-31
2023/11/20 02:56:00;;;;;;;2.47;2.00;;;;;;;21.81;59.42;97212.28;5027111;28;20300;-29
2023/11/20 02:58:27;;;;;;;3.00;1.83;;;;;;;21.81;59.44;97213.16;5022735;28;20652;-33
2023/11/20 03:00:53;;;;;;;3.63;2.20;;;;;;;21.77;59.50;97201.13;5027769;28;20284;-28
2023/11/20 03:03:20;;;;;;;2.10;1.90;;;;;;;21.81;59.53;97205.47;5027859;28;20233;-29
2023/11/20 03:05:47;;;;;;;2.47;1.90;;;;;;;21.82;59.37;97206.34;5027403;28;20202;-30
2023/11/20 03:08:13;;;;;;;2.07;1.80;;;;;;;21.82;59.57;97208.91;5030138;28;20217;-30
2023/11/20 03:10:40;;;;;;;2.43;1.73;;;;;;;21.83;59.34;97197.84;5032888;28;20248;-32
2023/11/20 03:13:07;;;;;;;2.10;1.50;;;;;;;21.81;59.34;97199.47;5021204;28;20221;-28
2023/11/20 03:15:34;;;;;;;2.50;1.90;;;;;;;21.82;59.35;97193.56;5027501;28;20205;-32
2023/11/20 03:18:01;;;;;;;1.63;1.53;;;;;;;21.82;59.57;97202.09;5022875;28;20301;-30
2023/11/20 03:20:28;;;;;;;2.10;1.80;;;;;;;21.81;59.63;97196.94;5024645;28;20208;-34
2023/11/20 03:22:54;;;;;;;2.20;1.60;;;;;;;21.82;59.57;97203.78;5026182;28;20289;-28
2023/11/20 03:25:21;;;;;;;1.90;1.60;;;;;;;21.81;59.40;97202.03;5025834;28;20255;-30
2023/11/20 03:27:48;;;;;;;2.13;1.77;;;;;;;21.81;59.55;97202.03;5017537;28;20229;-30
2023/11/20 03:30:14;;;;;;;1.93;1.70;;;;;;;21.79;59.40;97199.44;5019808;28;20342;-30
2023/11/20 03:32:41;;;;;;;1.77;1.60;;;;;;;21.80;59.20;97203.75;5027833;28;20237;-36
2023/11/20 03:35:09;;;;;;;1.80;1.70;;;;;;;21.81;59.27;97202.91;5015543;28;20201;-31
2023/11/20 03:37:35;;;;;;;2.03;1.57;;;;;;;21.82;59.36;97198.69;5028399;28;20237;-36
2023/11/20 03:40:03;;;;;;;1.80;1.70;;;;;;;21.82;58.86;97203.78;5020184;28;20237;-30
2023/11/20 03:42:30;;;;;;;2.17;1.80;;;;;;;21.83;59.42;97208.06;5028042;28;20201;-30
2023/11/20 03:44:56;;;;;;;2.80;1.90;;;;;;;21.84;59.24;97209.81;5024213;28;20614;-30
2023/11/20 03:47:23;;;;;;;2.47;1.80;;;;;;;21.83;59.44;97203.81;5022420;28;20259;-30
2023/11/20 03:49:49;;;;;;;1.60;1.50;;;;;;;21.83;59.43;97200.38;5023107;28;20312;-30
2023/11/20 03:52:16;;;;;;;2.10;1.70;;;;;;;21.82;59.32;97207.22;5021441;28;20573;-29
2023/11/20 03:54:43;;;;;;;2.50;1.70;;;;;;;21.81;59.34;97199.47;5026536;28;20222;-31
2023/11/20 03:57:09;;;;;;;3.03;1.87;;;;;;;21.80;59.49;97208.00;5026157;28;20344;-31
2023/11/20 03:59:36;;;;;;;2.43;1.90;;;;;;;21.79;59.60;97194.34;5024801;28;20205;-28
2023/11/20 04:02:03;;;;;;;2.23;1.43;;;;;;;21.79;59.58;97194.34;5023665;28;20693;-29
2023/11/20 04:04:29;;;;;;;2.07;1.57;;;;;;;21.80;59.55;97195.22;5023537;28;20229;-29
2023/11/20 04:06:58;;;;;;;2.30;1.70;;;;;;;21.81;59.47;97191.81;5030117;28;20263;-30
2023/11/20 04:09:25;;;;;;;2.13;1.60;;;;;;;21.81;59.36;97194.38;5031053;28;20633;-30
2023/11/20 04:11:51;;;;;;;2.40;1.50;;;;;;;21.81;59.38;97189.25;5028815;28;20296;-30
2023/11/20 04:14:18;;;;;;;1.80;1.70;;;;;;;21.82;59.49;97188.44;5025127;28;20221;-31
2023/11/20 04:16:46;;;;;;;2.13;1.67;;;;;;;21.81;59.45;97187.56;5030570;28;20201;-31
2023/11/20 04:19:13;;;;;;;3.20;1.90;;;;;;;21.81;59.45;97185.00;5025362;28;20251;-32
2023/11/20 04:21:41;;;;;;;1.90;1.60;;;;;;;21.82;59.55;97175.66;5029932;28;20210;-32
2023/11/20 04:24:08;;;;;;;2.30;1.80;;;;;;;21.81;59.53;97174.78;5029009;28;20599;-30
2023/11/20 04:26:35;;;;;;;2.17;1.60;;;;;;;21.80;59.26;97178.19;5023548;28;20727;-31
2023/11/20 04:29:01;;;;;;;1.67;1.47;;;;;;;21.81;59.12;97176.47;5030211;28;20238;-29
2023/11/20 04:31:28;;;;;;;1.70;1.60;;;;;;;21.81;59.27;97166.22;5028797;28;20205;-28
2023/11/20 04:33:55;;;;;;;2.00;1.70;;;;;;;21.82;59.20;97165.41;5028112;28;20225;-31
2023/11/20 04:36:21;;;;;;;1.87;1.67;;;;;;;21.83;59.08;97172.25;5029743;28;20606;-28
2023/11/20 04:38:48;;;;;;;2.07;1.80;;;;;;;21.84;59.41;97164.63;5031382;28;20205;-30
2023/11/20 04:41:15;;;;;;;1.80;1.60;;;;;;;21.84;59.01;97156.94;5020346;28;20202;-31
2023/11/20 04:43:41;;;;;;;1.93;1.73;;;;;;;21.84;59.01;97158.66;5024741;28;20332;-30
2023/11/20 04:46:12;;;;;;;2.37;1.80;;;;;;;21.85;59.22;97168.03;5021661;28;20565;-28
2023/11/20 04:48:39;;;;;;;1.97;1.70;;;;;;;21.84;59.14;97163.78;5032129;28;20228;-28
2023/11/20 04:51:05;;;;;;;1.60;1.50;;;;;;;21.84;59.10;97159.50;5020593;28;20214;-34
2023/11/20 04:53:32;;;;;;;1.80;1.33;;;;;;;21.85;58.96;97161.25;5022805;28;20230;-29
2023/11/20 04:55:59;;;;;;;3.13;1.90;;;;;;;21.85;59.19;97165.50;5020477;28;20206;-30
2023/11/20 04:58:25;;;;;;;2.37;1.80;;;;;;;21.85;58.99;97163.81;5023200;28;20230;-30
2023/11/20 05:00:52;;;;;;;2.20;1.50;;;;;;;21.86;59.05;97151.84;5013426;28;20214;-29
2023/11/20 05:03:21;;;;;;;2.00;1.70;;;;;;;21.86;59.16;97159.53;5027484;28;20716;-29
2023/11/20 05:05:47;;;;;;;2.03;1.60;;;;;;;21.86;59.25;97154.41;5030701;28;20201;-31
2023/11/20 05:08:14;;;;;;;1.67;1.57;;;;;;;21.86;59.18;97144.19;5024992;28;20354;-28
2023/11/20 05:10:41;;;;;;;2.63;1.40;;;;;;;21.85;59.31;97152.69;5022784;28;20201;-28
2023/11/20 05:13:09;;;;;;;3.00;1.70;;;;;;;21.85;59.38;97156.13;5023438;28;20230;-30
2023/11/20 05:15:36;;;;;;;1.60;1.50;;;;;;;21.84;59.44;97158.66;5032309;28;20218;-28
2023/11/20 05:18:03;;;;;;;4.47;2.00;;;;;;;21.83;59.67;97151.78;5027398;28;20206;-31
2023/11/20 05:20:30;;;;;;;1.87;1.67;;;;;;;21.81;59.50;97148.31;5025846;28;20198;-31
2023/11/20 05:22:56;;;;;;;2.43;1.50;;;;;;;21.82;59.75;97144.97;5028237;28;20214;-36
2023/11/20 05:25:23;;;;;;;5.57;2.00;;;;;;;21.83;59.84;97146.66;5028368;28;20202;-30
2023/11/20 05:27:49;;;;;;;5.70;2.23;;;;;;;21.83;59.83;97149.22;5025656;28;20205;-33
2023/11/20 05:30:16;;;;;;;7.07;1.73;;;;;;;21.84;59.93;97148.41;5027307;28;20652;-29
2023/11/20 05:32:42;;;;;;;11.03;2.30;;;;;;;21.84;60.08;97158.66;5026217;28;20253;-30
2023/11/20 05:35:09;;;;;;;5.47;2.00;;;;;;;21.86;60.08;97164.66;5019602;28;20209;-30
2023/11/20 05:37:36;;;;;;;2.60;2.00;;;;;;;21.85;60.33;97162.94;5028405;28;20289;-31
2023/11/20 05:40:03;;;;;;;4.33;1.77;;;;;;;21.86;60.36;97159.53;5023171;28;20321;-30
2023/11/20 05:42:29;;;;;;;3.03;1.73;;;;;;;21.85;60.29;97163.81;5028612;28;20206;-31
2023/11/20 05:44:56;;;;;;;3.47;2.03;;;;;;;21.86;60.29;97159.53;5035076;28;20257;-31
2023/11/20 05:47:23;;;;;;;2.90;1.87;;;;;;;21.85;59.91;97163.81;5020863;28;20263;-31
2023/11/20 05:49:51;;;;;;;2.97;1.90;;;;;;;21.86;60.21;97164.66;5027310;28;20657;-28
2023/11/20 05:52:18;;;;;;;4.73;1.70;;;;;;;21.86;60.46;97167.19;5025732;28;20225;-30
2023/11/20 05:54:44;;;;;;;2.03;1.70;;;;;;;21.87;60.32;97164.69;5023906;28;20240;-35
2023/11/20 05:57:11;;;;;;;4.27;2.10;;;;;;;21.86;60.44;97159.53;5028088;28;20201;-30
2023/11/20 05:59:38;;;;;;;4.93;1.80;;;;;;;21.87;60.49;97166.41;5028243;28;20687;-28
2023/11/20 06:02:04;;;;;;;3.57;1.80;;;;;;;21.87;60.38;97174.91;5027643;28;20480;-32
2023/11/20 06:04:31;;;;;;;4.83;1.90;;;;;;;21.87;60.37;97167.25;5016697;28;20506;-28
2023/11/20 06:06:58;;;;;;;3.67;1.90;;;;;;;21.86;60.22;97170.63;5029039;28;20326;-28
2023/11/20 06:09:25;;;;;;;2.37;1.70;;;;;;;21.87;60.23;97171.50;5018837;28;20226;-30
2023/11/20 06:11:52;;;;;;;2.87;1.70;;;;;;;21.86;60.24;97168.09;5026862;28;20248;-30
2023/11/20 06:14:19;;;;;;;3.23;1.60;;;;;;;21.87;60.18;97169.78;5022092;28;20224;-28
2023/11/20 06:16:48;;;;;;;3.00;1.60;;;;;;;21.86;60.30;97170.63;5021655;28;20645;-31
2023/11/20 06:19:15;;;;;;;2.57;1.77;;;;;;;21.84;60.40;97168.88;5023494;28;20255;-28
2023/11/20 06:21:49;;;;;;;3.73;1.97;;;;;;;21.85;59.74;97173.16;5026270;28;20660;-30
2023/11/20 06:24:16;;;;;;;7.50;1.93;;;;;;;21.80;58.10;97167.94;5024449;28;20707;-32
2023/11/20 06:26:42;;;;;;;3.23;2.00;;;;;;;21.82;57.90;97166.28;5033015;28;20202;-31
2023/11/20 06:29:09;;;;;;;3.70;2.13;;;;;;;21.80;56.95;97169.63;5036765;28;20302;-29
2023/11/20 06:31:36;;;;;;;3.43;2.10;;;;;;;21.77;56.43;97169.56;5029086;28;20275;-30
2023/11/20 06:34:03;;;;;;;4.50;2.30;;;;;;;21.81;55.26;97173.91;5036803;28;20228;-32
2023/11/20 06:36:30;;;;;;;2.93;2.03;;;;;;;21.80;54.72;97170.50;5024275;28;20731;-30
2023/11/20 06:39:00;;;;;;;4.67;1.87;;;;;;;21.80;54.20;97172.19;5033029;28;20907;-31
2023/11/20 06:41:28;;;;;;;3.83;2.07;;;;;;;21.79;55.17;97175.59;5028144;28;20205;-32
2023/11/20 06:43:55;;;;;;;3.57;1.83;;;;;;;21.79;56.26;97183.25;5028539;28;20226;-30
2023/11/20 06:46:21;;;;;;;3.57;1.90;;;;;;;21.78;57.13;97187.50;5021648;28;20208;-30
2023/11/20 06:48:48;;;;;;;2.67;1.90;;;;;;;21.78;57.86;97177.25;5025982;28;20335;-28
2023/11/20 06:51:15;;;;;;;5.20;2.20;;;;;;;21.77;57.99;97173.00;5029193;28;20210;-32
2023/11/20 06:53:45;;;;;;;6.03;2.00;;;;;;;21.78;58.18;97184.06;5024540;28;20225;-28
2023/11/20 06:56:18;;;;;;;2.17;1.80;;;;;;;21.78;58.30;97182.38;5022868;28;20209;-29
2023/11/20 06:58:45;;;;;;;3.87;2.00;;;;;;;21.77;58.42;97175.56;5018306;28;20203;-29
2023/11/20 07:01:14;;;;;;;3.07;2.17;;;;;;;21.78;58.29;97186.63;5027490;28;20233;-29
2023/11/20 07:03:44;;;;;;;3.07;1.87;;;;;;;21.76;55.55;97184.03;5022269;28;20233;-28
2023/11/20 07:06:12;;;;;;;4.70;2.37;;;;;;;21.75;54.38;97191.66;5022462;28;20201;-29
2023/11/20 07:08:39;;;;;;;2.77;1.83;;;;;;;21.73;54.10;97180.53;5032144;28;20267;-29
2023/11/20 07:11:06;;;;;;;3.83;2.13;;;;;;;21.73;54.34;97188.19;5028611;28;20598;-30
2023/11/20 07:13:32;;;;;;;3.80;2.10;;;;;;;21.71;54.79;97189.00;5034718;28;20224;-30
2023/11/20 07:15:59;;;;;;;2.70;2.17;;;;;;;21.73;54.79;97204.38;5029292;28;20288;-29
2023/11/20 07:18:26;;;;;;;3.00;2.00;;;;;;;21.71;55.46;97195.84;5022570;28;20227;-28
2023/11/20 07:20:53;;;;;;;5.17;1.90;;;;;;;21.74;56.59;97206.16;5026792;28;20241;-31
2023/11/20 07:23:20;;;;;;;3.40;1.90;;;;;;;21.73;56.84;97198.44;5022398;28;20256;-33
2023/11/20 07:25:47;;;;;;;2.77;1.77;;;;;;;21.75;57.12;97214.69;5022521;28;20579;-30
2023/11/20 07:28:13;;;;;;;3.83;1.87;;;;;;;21.76;57.65;97216.44;5022340;28;20238;-30
2023/11/20 07:30:40;;;;;;;4.07;1.80;;;;;;;21.75;57.90;97214.69;5027704;28;20821;-28
2023/11/20 07:33:07;;;;;;;5.73;1.83;;;;;;;21.73;58.04;97209.50;5022400;28;20760;-32
2023/11/20 07:35:33;;;;;;;3.07;1.97;;;;;;;21.74;58.02;97208.72;5027074;28;20205;-28
2023/11/20 07:38:02;;;;;;;2.57;1.77;;;;;;;21.74;58.01;97213.84;5018624;28;20713;-30
2023/11/20 07:40:29;;;;;;;5.80;2.07;;;;;;;21.73;58.41;97212.94;5011697;28;20911;-30
2023/11/20 07:42:56;;;;;;;4.13;1.70;;;;;;;21.74;58.40;97213.84;5025450;28;20229;-29
2023/11/20 07:45:23;;;;;;;2.97;1.70;;;;;;;21.73;58.36;97211.22;5027001;28;20288;-29
2023/11/20 07:47:50;;;;;;;3.60;1.90;;;;;;;21.73;58.61;97216.34;5019658;28;20206;-30
2023/11/20 07:50:17;;;;;;;3.27;1.90;;;;;;;21.72;58.54;97218.00;5013299;28;20218;-30
2023/11/20 07:52:43;;;;;;;3.03;1.80;;;;;;;21.70;58.58;97220.53;5022316;28;20220;-31
2023/11/20 07:55:11;;;;;;;2.30;1.70;;;;;;;21.71;58.56;97224.81;5022349;28;20209;-32
2023/11/20 07:57:39;;;;;;;2.50;1.83;;;;;;;21.70;58.52;97205.19;5017179;28;20309;-32
2023/11/20 08:00:06;;;;;;;3.17;1.60;;;;;;;21.70;58.57;97210.31;5025377;28;20583;-34
2023/11/20 08:02:32;;;;;;;5.00;2.37;;;;;;;21.64;58.50;97197.38;5012902;28;20646;-29
2023/11/20 08:04:59;;;;;;;3.40;1.70;;;;;;;21.71;58.96;97200.94;5027085;28;20261;-28
2023/11/20 08:07:26;;;;;;;2.80;1.90;;;;;;;21.71;59.06;97203.50;5020083;28;20458;-35
2023/11/20 08:09:53;;;;;;;2.13;1.60;;;;;;;21.69;59.13;97203.47;5021411;28;20304;-34
2023/11/20 08:12:19;;;;;;;2.60;1.67;;;;;;;21.70;58.97;97201.75;5022851;28;20205;-38
2023/11/20 08:14:47;;;;;;;4.37;1.90;;;;;;;21.70;58.99;97207.75;5017820;28;20260;-31
2023/11/20 08:17:13;;;;;;;2.50;1.87;;;;;;;21.69;59.02;97198.34;5025908;28;20238;-31
2023/11/20 08:19:44;;;;;;;1.87;1.60;;;;;;;21.70;58.88;97192.41;5015807;28;20202;-28
2023/11/20 08:22:11;;;;;;;2.37;1.60;;;;;;;21.70;59.05;97194.97;5016955;28;20214;-31
2023/11/20 08:24:38;;;;;;;3.97;1.83;;;;;;;21.70;59.10;97189.84;5011796;28;20229;-28
2023/11/20 08:27:05;;;;;;;5.73;1.87;;;;;;;21.71;59.27;97185.59;5008949;28;20206;-34
2023/11/20 08:29:32;;;;;;;2.97;1.70;;;;;;;21.70;59.55;97192.41;5020436;28;20226;-34
2023/11/20 08:31:59;;;;;;;2.67;1.70;;;;;;;21.71;59.29;97190.72;5019801;28;20672;-28
2023/11/20 08:34:26;;;;;;;5.20;2.03;;;;;;;21.70;59.14;97191.53;5019330;28;20237;-28
2023/11/20 08:36:53;;;;;;;3.03;1.77;;;;;;;21.70;59.21;97191.53;5023372;28;20210;-33
2023/11/20 08:39:22;;;;;;;2.47;1.60;;;;;;;21.70;59.08;97192.41;5012822;28;20203;-30
2023/11/20 08:41:49;;;;;;;3.30;1.90;;;;;;;21.73;59.90;97203.53;5024843;28;20304;-29
2023/11/20 08:44:15;;;;;;;8.47;2.37;;;;;;;21.76;59.67;97195.97;5022195;28;20232;-32
2023/11/20 08:46:43;;;;;;;8.60;2.13;;;;;;;21.68;60.05;97185.53;5021551;28;20678;-36
2023/11/20 08:49:10;;;;;;;57.13;5.20;;;;;;;21.80;60.24;97198.63;5022793;28;20209;-32
2023/11/20 08:51:37;;;;;;;47.97;4.73;;;;;;;21.82;59.78;97204.66;5021671;28;20209;-30
2023/11/20 08:54:11;;;;;;;49.43;4.50;;;;;;;21.84;59.59;97207.25;5032114;28;20278;-31
2023/11/20 08:56:38;;;;;;;41.93;4.20;;;;;;;21.83;59.64;97200.38;5021790;28;20215;-32
2023/11/20 08:59:05;;;;;;;55.13;4.03;;;;;;;21.85;59.43;97203.88;5028524;28;20851;-31
2023/11/20 09:01:33;;;;;;;37.47;3.50;;;;;;;21.85;59.52;97208.97;5024513;28;20321;-29
2023/11/20 09:04:03;;;;;;;42.97;3.63;;;;;;;21.84;59.53;97202.16;5026020;28;20230;-30
2023/11/20 09:06:31;;;;;;;26.13;3.53;;;;;;;21.86;59.48;97205.59;5025164;28;20620;-30
2023/11/20 09:08:58;;;;;;;22.83;3.13;;;;;;;21.85;59.40;97212.41;5019851;28;20246;-31
2023/11/20 09:11:24;;;;;;;16.80;2.70;;;;;;;21.85;59.16;97209.84;5026994;28;20217;-33
2023/11/20 09:13:51;;;;;;;22.73;3.43;;;;;;;21.85;59.22;97217.53;5018976;28;20258;-33
2023/11/20 09:16:18;;;;;;;16.30;2.93;;;;;;;21.85;59.38;97206.41;5020428;28;20304;-31
2023/11/20 09:18:45;;;;;;;12.17;2.47;;;;;;;21.83;59.11;97214.06;5016276;28;20206;-29
2023/11/20 09:21:13;;;;;;;11.57;2.10;;;;;;;21.84;59.13;97202.16;5017058;28;20205;-32
2023/11/20 09:23:39;;;;;;;6.37;2.07;;;;;;;21.82;59.05;97207.22;5022142;28;21090;-30
2023/11/20 09:26:12;;;;;;;13.77;2.57;;;;;;;21.82;59.20;97201.22;5020738;28;20267;-32
2023/11/20 09:28:39;;;;;;;9.70;2.20;;;;;;;21.84;59.00;97207.25;5021059;28;20220;-33
2023/11/20 09:31:06;;;;;;;11.23;2.20;;;;;;;21.82;59.02;97197.00;5019943;28;20602;-33
2023/11/20 09:33:35;;;;;;;11.50;2.07;;;;;;;21.83;58.81;97193.59;5019539;28;20766;-34
2023/11/20 09:36:03;;;;;;;8.43;2.30;;;;;;;21.84;59.00;97200.44;5016682;28;20202;-30
2023/11/20 09:38:30;;;;;;;6.17;1.63;;;;;;;21.85;58.80;97191.06;5023700;28;20212;-32
2023/11/20 09:40:58;;;;;;;8.10;2.30;;;;;;;21.85;58.96;97193.63;5021305;28;20239;-29
2023/11/20 09:43:25;;;;;;;7.13;1.90;;;;;;;21.84;58.86;97191.91;5022543;28;20252;-32
2023/11/20 09:45:51;;;;;;;11.77;2.17;;;;;;;21.85;58.82;97197.06;5007381;28;20210;-30
2023/11/20 09:48:24;;;;;;;5.67;2.00;;;;;;;21.83;58.97;97188.47;5005541;28;20289;-33
2023/11/20 09:50:51;;;;;;;11.07;1.90;;;;;;;21.83;58.76;97190.16;5009778;28;20245;-33
2023/11/20 09:53:37;;;;;;;7.77;1.90;;;;;;;21.84;58.92;97184.25;5007956;28;20237;-33
2023/11/20 09:56:04;;;;;;;4.43;1.63;;;;;;;21.81;59.00;97164.53;5027396;28;20299;-39
2023/11/20 09:58:31;;;;;;;5.90;2.00;;;;;;;21.82;59.09;97167.97;5017821;28;20301;-30
2023/11/20 10:01:09;;;;;;;4.53;1.87;;;;;;;21.83;58.96;97164.56;5018694;28;20588;-33
2023/11/20 10:03:42;;;;;;;2.73;1.80;;;;;;;21.84;58.92;97174.00;5025042;28;20282;-31
2023/11/20 10:06:13;;;;;;;4.93;1.90;;;;;;;21.83;58.59;97177.38;5020476;28;20217;-32
2023/11/20 10:08:40;;;;;;;4.53;1.57;;;;;;;21.83;58.92;97173.13;5002398;28;20261;-29
2023/11/20 10:11:07;;;;;;;5.30;2.03;;;;;;;21.83;58.67;97160.34;5012995;28;20249;-31
2023/11/20 10:13:34;;;;;;;9.23;1.63;;;;;;;21.84;58.86;97167.16;5019669;28;20256;-32
2023/11/20 10:16:01;;;;;;;5.67;1.70;;;;;;;21.84;58.86;97156.94;5020423;28;20509;-30
2023/11/20 10:18:27;;;;;;;11.80;2.10;;;;;;;21.84;58.30;97153.53;5009234;28;20288;-31
2023/11/20 10:20:57;;;;;;;6.17;2.03;;;;;;;21.85;57.47;97152.69;5020541;28;20202;-30
2023/11/20 10:23:25;;;;;;;8.90;2.60;;;;;;;21.90;53.21;97151.13;5015977;28;20665;-29
2023/11/20 10:25:52;;;;;;;6.33;2.47;;;;;;;21.91;50.34;97147.72;5028794;28;20695;-29
2023/11/20 10:28:21;;;;;;;4.80;2.27;;;;;;;21.91;48.53;97142.59;5017699;28;20210;-32
2023/11/20 10:30:48;;;;;;;5.00;2.30;;;;;;;21.88;48.30;97145.97;5023733;28;20218;-33
2023/11/20 10:33:19;;;;;;;7.10;2.57;;;;;;;21.84;47.76;97141.59;5011124;28;20226;-30
2023/11/20 10:35:46;;;;;;;6.67;2.53;;;;;;;21.80;47.46;97137.25;5026055;28;20217;-31
2023/11/20 10:38:13;;;;;;;9.23;2.33;;;;;;;21.73;47.28;97131.09;5011903;28;20210;-32
2023/11/20 10:40:41;;;;;;;6.03;2.43;;;;;;;21.65;47.32;97129.19;5024043;28;20229;-30
2023/11/20 10:43:07;;;;;;;5.57;2.50;;;;;;;21.61;47.71;97127.38;5023470;28;20854;-31
2023/11/20 10:45:34;;;;;;;6.23;2.40;;;;;;;21.44;48.10;97129.56;5025704;28;20211;-29
2023/11/20 10:48:02;;;;;;;5.33;2.23;;;;;;;21.30;49.69;97127.50;5003081;28;20230;-31
2023/11/20 10:50:31;;;;;;;6.27;2.33;;;;;;;21.16;50.64;97118.63;5020698;28;20704;-34
2023/11/20 10:53:05;;;;;;;8.47;2.83;;;;;;;21.17;50.95;97120.38;5025538;28;20244;-30
2023/11/20 10:55:42;;;;;;;6.03;2.30;;;;;;;21.14;51.24;97117.75;5029009;28;20204;-30
2023/11/20 10:58:10;;;;;;;6.87;2.80;;;;;;;21.15;51.98;97117.78;5015006;28;20293;-30
2023/11/20 11:00:39;;;;;;;6.10;2.40;;;;;;;21.14;52.38;97108.38;5017268;28;20271;-29
2023/11/20 11:03:08;;;;;;;5.37;2.37;;;;;;;21.14;52.34;97100.72;5017179;28;20237;-30
2023/11/20 11:05:43;;;;;;;5.90;2.63;;;;;;;21.18;52.52;97106.78;5025302;28;20213;-34
2023/11/20 11:08:11;;;;;;;7.67;2.60;;;;;;;21.19;52.73;97096.59;5005535;28;20214;-31
2023/11/20 11:10:42;;;;;;;5.47;2.67;;;;;;;21.22;53.02;97098.34;5010830;28;20225;-35
2023/11/20 11:13:08;;;;;;;6.53;2.40;;;;;;;21.25;53.36;97093.31;5018427;28;20345;-32
2023/11/20 11:15:36;;;;;;;3.57;2.10;;;;;;;21.11;53.39;97058.91;5014576;28;20804;-34
2023/11/20 11:18:08;;;;;;;5.43;2.50;;;;;;;21.29;53.91;97085.75;5023321;28;20201;-33
2023/11/20 11:20:37;;;;;;;3.67;1.87;;;;;;;21.31;54.00;97084.09;5021142;28;20759;-32
2023/11/20 11:23:06;;;;;;;3.60;2.20;;;;;;;21.34;53.96;97079.06;5016020;28;20645;-30
2023/11/20 11:25:38;;;;;;;4.40;2.10;;;;;;;21.37;54.01;97074.00;5022499;28;20232;-31
2023/11/20 11:28:05;;;;;;;4.57;1.90;;;;;;;21.42;54.05;97074.13;5023061;28;20375;-32
2023/11/20 11:30:34;;;;;;;4.93;2.60;;;;;;;21.44;54.25;97064.78;5025020;28;20221;-30
2023/11/20 11:33:07;;;;;;;3.47;2.00;;;;;;;21.45;54.48;97071.63;5009548;28;20225;-34